Time;durP1;ratioP1;P1;durP2;ratioP2;P2;SDS_P1;SDS_P2;PMS_P1;PMS_P2;Temp;Humidity;BMP_temperature;BMP_pressure;BME280_temperature;BME280_humidity;BME280_pressure;Samples;Min_cycle;Max_cycle;Signal;HPM_P1;HPM_P2
2021/07/23 00:04:07;;;;;;;18.37;9.63;;;16.70;99.90;;;;;;20832180;28;20025;-74
2021/07/23 00:14:08;;;;;;;21.20;10.13;;;16.80;99.90;;;;;;20831743;28;20100;-74
2021/07/23 00:24:09;;;;;;;19.60;11.37;;;16.60;99.90;;;;;;20831627;28;20029;-73
2021/07/23 00:34:10;;;;;;;17.17;9.13;;;16.30;99.90;;;;;;20830497;28;20116;-74
2021/07/23 00:44:11;;;;;;;21.53;10.30;;;16.30;99.90;;;;;;20811706;28;20124;-76
2021/07/23 00:54:12;;;;;;;20.27;9.75;;;16.00;99.90;;;;;;20811088;28;20033;-76
2021/07/23 01:04:14;;;;;;;;;;;15.90;99.90;;;;;;20810594;28;20033;-76
2021/07/23 01:14:16;;;;;;;17.65;10.68;;;15.90;99.90;;;;;;20808809;28;20375;-75
2021/07/23 01:24:19;;;;;;;16.25;10.85;;;15.80;99.90;;;;;;20809088;28;20120;-75
2021/07/23 01:34:22;;;;;;;17.90;10.55;;;15.80;99.90;;;;;;20808300;28;20037;-74
2021/07/23 01:44:23;;;;;;;20.40;11.70;;;15.60;99.90;;;;;;20808047;28;20038;-76
2021/07/23 01:54:23;;;;;;;18.10;11.00;;;15.50;99.90;;;;;;20825005;28;20029;-75
2021/07/23 02:04:26;;;;;;;17.92;10.95;;;15.40;99.90;;;;;;20807268;28;20742;-75
2021/07/23 02:14:29;;;;;;;16.27;10.18;;;15.30;99.90;;;;;;20790824;28;20492;-76
2021/07/23 02:24:30;;;;;;;23.27;11.45;;;15.30;99.90;;;;;;20816495;28;20132;-75
2021/07/23 02:34:32;;;;;;;14.73;10.40;;;15.20;99.90;;;;;;20839662;28;20029;-76
2021/07/23 02:44:35;;;;;;;19.77;11.27;;;15.20;99.90;;;;;;20820970;28;20041;-75
2021/07/23 02:54:36;;;;;;;27.53;11.70;;;14.90;99.90;;;;;;20837964;28;20496;-75
2021/07/23 03:04:37;;;;;;;24.37;11.63;;;14.90;99.90;;;;;;20819595;28;20065;-75
2021/07/23 03:14:39;;;;;;;22.55;11.77;;;14.80;99.90;;;;;;20818884;28;20044;-74
2021/07/23 03:24:47;;;;;;;19.40;11.02;;;14.70;99.90;;;;;;20818130;28;20120;-75
2021/07/23 03:35:07;;;;;;;21.05;11.15;;;14.60;99.90;;;;;;20817329;28;20056;-75
2021/07/23 03:45:13;;;;;;;22.63;12.30;;;14.60;99.90;;;;;;20836850;28;20112;-75
2021/07/23 03:55:18;;;;;;;20.67;12.55;;;14.40;99.90;;;;;;20821383;28;20422;-75
2021/07/23 04:05:19;;;;;;;21.10;12.32;;;14.30;99.90;;;;;;20819173;28;20140;-75
2021/07/23 04:15:21;;;;;;;19.83;12.30;;;14.40;99.90;;;;;;20880979;28;20029;-76
2021/07/23 04:25:48;;;;;;;18.80;11.65;;;14.40;99.90;;;;;;20894674;28;20041;-75
2021/07/23 04:35:50;;;;;;;;;;;14.40;99.90;;;;;;20888628;28;20117;-75
2021/07/23 04:45:52;;;;;;;20.13;12.27;;;14.40;99.90;;;;;;20811107;28;20283;-76
2021/07/23 04:55:55;;;;;;;26.70;13.13;;;14.60;99.90;;;;;;20811489;28;20491;-75
2021/07/23 05:06:07;;;;;;;21.05;12.82;;;14.80;99.90;;;;;;20828502;28;20112;-76
2021/07/23 05:16:09;;;;;;;18.00;10.75;;;15.20;99.90;;;;;;20826404;28;20041;-76
2021/07/23 05:26:11;;;;;;;18.63;10.50;;;15.70;99.90;;;;;;20807870;28;20104;-76
2021/07/23 05:36:12;;;;;;;20.55;12.18;;;16.20;99.90;;;;;;20825996;28;20065;-75
2021/07/23 05:46:13;;;;;;;22.40;11.73;;;16.40;99.90;;;;;;20835769;22;20076;-82
2021/07/23 05:56:14;;;;;;;20.47;12.60;;;16.70;99.90;;;;;;20795813;28;20038;-81
2021/07/23 06:06:15;;;;;;;24.10;11.87;;;17.10;99.90;;;;;;20763519;28;20064;-81
2021/07/23 06:16:16;;;;;;;16.80;10.83;;;17.50;99.90;;;;;;20744866;28;20097;-80
2021/07/23 06:26:16;;;;;;;18.27;11.50;;;18.00;99.90;;;;;;20744809;28;20377;-81
2021/07/23 06:36:17;;;;;;;21.93;11.83;;;18.30;99.90;;;;;;20755252;28;20041;-79
2021/07/23 06:46:18;;;;;;;18.17;10.37;;;18.90;99.90;;;;;;20755365;28;20514;-81
2021/07/23 06:56:19;;;;;;;20.23;9.93;;;19.20;99.90;;;;;;20738457;28;20058;-82
2021/07/23 07:06:20;;;;;;;17.37;9.87;;;19.90;99.90;;;;;;20757269;28;20033;-79
2021/07/23 07:16:21;;;;;;;19.53;10.00;;;20.70;99.90;;;;;;20754751;28;20036;-81
2021/07/23 07:26:22;;;;;;;15.10;10.00;;;21.30;99.90;;;;;;20784750;28;20034;-80
2021/07/23 07:36:23;;;;;;;17.80;9.50;;;21.90;99.90;;;;;;20758581;28;20032;-81
2021/07/23 07:46:25;;;;;;;17.53;9.57;;;22.60;99.90;;;;;;20752682;28;20057;-81
2021/07/23 07:56:25;;;;;;;16.27;9.98;;;22.60;99.90;;;;;;20757546;28;20038;-81
2021/07/23 08:06:32;;;;;;;15.77;9.77;;;22.90;99.90;;;;;;20770311;28;20041;-80
2021/07/23 08:16:34;;;;;;;18.13;10.18;;;23.30;99.90;;;;;;20751955;28;20053;-81
2021/07/23 08:26:35;;;;;;;16.52;9.10;;;23.90;99.90;;;;;;20777471;28;20033;-79
2021/07/23 08:36:36;;;;;;;14.03;9.30;;;24.20;99.90;;;;;;20741954;28;20120;-79
2021/07/23 08:46:36;;;;;;;15.38;9.63;;;25.70;99.90;;;;;;20759256;28;20073;-78
2021/07/23 08:56:43;;;;;;;14.60;8.10;;;26.10;99.90;;;;;;20755194;28;20038;-78
2021/07/23 09:06:45;;;;;;;13.82;8.70;;;26.40;99.90;;;;;;20755312;28;20030;-79
2021/07/23 09:16:56;;;;;;;15.13;8.70;;;26.10;99.90;;;;;;20749464;28;20033;-79
2021/07/23 09:26:57;;;;;;;15.63;9.23;;;26.90;99.90;;;;;;20743489;28;20217;-80
2021/07/23 09:37:11;;;;;;;18.17;8.73;;;27.30;99.90;;;;;;20759302;28;20029;-80
2021/07/23 09:47:23;;;;;;;16.25;8.68;;;27.40;99.90;;;;;;20742889;28;20030;-80
2021/07/23 09:57:29;;;;;;;27.73;10.40;;;28.30;99.90;;;;;;20759918;28;20026;-80
2021/07/23 10:07:58;;;;;;;15.13;9.05;;;28.60;99.90;;;;;;20740041;28;20420;-80
2021/07/23 10:18:00;;;;;;;16.05;9.35;;;28.20;99.90;;;;;;20745661;28;20137;-80
2021/07/23 10:28:01;;;;;;;15.88;9.70;;;28.40;99.90;;;;;;20759232;28;20030;-81
2021/07/23 10:38:04;;;;;;;29.13;10.65;;;27.60;99.90;;;;;;20741047;28;20481;-79
2021/07/23 10:48:05;;;;;;;13.07;8.98;;;29.80;99.90;;;;;;20768802;28;20096;-80
2021/07/23 10:58:08;;;;;;;17.55;9.48;;;30.20;99.90;;;;;;20800052;28;20042;-81
2021/07/23 11:08:14;;;;;;;13.68;9.00;;;30.50;99.90;;;;;;20783966;28;20030;-81
2021/07/23 11:18:15;;;;;;;11.15;8.30;;;31.40;99.90;;;;;;20811614;28;20034;-81
2021/07/23 11:28:16;;;;;;;13.90;9.40;;;32.00;99.90;;;;;;20816066;28;20030;-80
2021/07/23 11:38:17;;;;;;;13.73;8.75;;;31.50;99.90;;;;;;20806005;28;20022;-82
2021/07/23 11:48:18;;;;;;;12.85;8.60;;;31.50;99.90;;;;;;20775936;23;20042;-75
2021/07/23 11:58:25;;;;;;;13.68;9.07;;;32.80;99.90;;;;;;20751243;28;20065;-75
2021/07/23 12:08:39;;;;;;;16.50;9.50;;;32.70;99.90;;;;;;20750463;28;20026;-75
2021/07/23 12:18:54;;;;;;;14.07;9.02;;;32.60;99.90;;;;;;20716082;28;20108;-75
2021/07/23 12:28:56;;;;;;;12.70;9.38;;;31.30;99.90;;;;;;20749079;28;20044;-74
2021/07/23 12:39:02;;;;;;;13.60;8.98;;;31.20;99.90;;;;;;20748119;28;20106;-74
2021/07/23 12:49:09;;;;;;;11.02;8.02;;;31.50;99.90;;;;;;20727074;28;20042;-75
2021/07/23 12:59:27;;;;;;;10.20;6.82;;;31.70;99.90;;;;;;20729415;28;20046;-76
2021/07/23 13:09:28;;;;;;;13.25;7.60;;;32.80;99.90;;;;;;20746334;28;20034;-76
2021/07/23 13:19:28;;;;;;;10.07;6.72;;;32.70;99.90;;;;;;20745120;28;20029;-76
2021/07/23 13:29:29;;;;;;;12.32;7.65;;;32.50;99.60;;;;;;20744693;28;20082;-75
2021/07/23 13:39:59;;;;;;;9.77;6.65;;;32.50;99.90;;;;;;20740977;28;20114;-75
2021/07/23 13:50:01;;;;;;;;;;;33.10;99.00;;;;;;20732758;28;20056;-75
2021/07/23 14:00:07;;;;;;;17.83;7.73;;;33.30;98.50;;;;;;20764560;28;20291;-75
2021/07/23 14:10:12;;;;;;;14.90;8.25;;;33.20;99.10;;;;;;20689540;28;20045;-75
2021/07/23 14:20:13;;;;;;;10.88;6.45;;;32.60;97.00;;;;;;20651820;28;20042;-75
2021/07/23 14:30:14;;;;;;;13.68;6.40;;;32.90;96.90;;;;;;20657926;28;20049;-76
2021/07/23 14:40:15;;;;;;;9.52;6.40;;;33.00;96.50;;;;;;20655591;28;20093;-76
2021/07/23 14:50:16;;;;;;;12.63;7.57;;;32.50;96.80;;;;;;20783949;28;20040;-76
2021/07/23 15:00:18;;;;;;;15.13;7.05;;;32.20;96.30;;;;;;20818071;28;20037;-75
2021/07/23 15:10:19;;;;;;;17.25;7.05;;;32.30;96.80;;;;;;20816496;28;20083;-74
2021/07/23 15:20:21;;;;;;;12.48;7.68;;;32.00;99.00;;;;;;20816080;28;20037;-74
2021/07/23 15:30:22;;;;;;;10.15;7.38;;;32.20;96.50;;;;;;20744875;28;20057;-75
2021/07/23 15:40:28;;;;;;;12.43;7.17;;;31.50;96.00;;;;;;20657775;28;20506;-76
2021/07/23 15:50:29;;;;;;;15.00;8.25;;;30.90;97.20;;;;;;20662298;28;20304;-76
2021/07/23 16:00:30;;;;;;;19.17;8.03;;;31.20;97.60;;;;;;20751592;28;20030;-76
2021/07/23 16:10:31;;;;;;;12.70;7.53;;;31.20;98.30;;;;;;20767304;28;20291;-75
2021/07/23 16:20:32;;;;;;;11.40;7.05;;;31.00;97.70;;;;;;20758170;28;20036;-76
2021/07/23 16:30:32;;;;;;;12.90;7.40;;;30.50;98.20;;;;;;20729092;28;20038;-77
2021/07/23 16:40:33;;;;;;;11.32;7.60;;;30.50;98.90;;;;;;20729612;28;20962;-77
2021/07/23 16:50:35;;;;;;;14.40;7.93;;;29.90;99.00;;;;;;20793991;28;20040;-75
2021/07/23 17:00:35;;;;;;;17.92;7.90;;;29.10;99.90;;;;;;20790579;28;20052;-75
2021/07/23 17:10:42;;;;;;;14.55;8.20;;;27.70;99.90;;;;;;20789866;28;20691;-75
2021/07/23 17:20:43;;;;;;;16.75;8.70;;;28.00;99.90;;;;;;20800807;28;20026;-75
2021/07/23 17:30:44;;;;;;;15.35;9.38;;;28.80;99.90;;;;;;20724615;28;20124;-75
2021/07/23 17:40:45;;;;;;;26.33;13.38;;;28.70;99.90;;;;;;20724014;28;20133;-75
2021/07/23 17:50:46;;;;;;;60.80;13.85;;;28.40;99.90;;;;;;20807193;23;20472;-77
2021/07/23 18:00:47;;;;;;;20.80;10.52;;;26.50;99.90;;;;;;20814325;28;20080;-77
2021/07/23 18:10:48;;;;;;;15.48;9.32;;;25.70;99.90;;;;;;20806563;28;20064;-77
2021/07/23 18:20:49;;;;;;;;;;;26.10;99.90;;;;;;20807520;28;20029;-77
2021/07/23 18:30:50;;;;;;;16.23;8.90;;;25.90;99.90;;;;;;20808101;28;19917;-77
2021/07/23 18:40:52;;;;;;;14.23;8.73;;;25.60;99.90;;;;;;20806734;28;20029;-78
2021/07/23 18:50:52;;;;;;;14.50;8.55;;;25.20;99.90;;;;;;20835002;28;20037;-78
2021/07/23 19:00:53;;;;;;;13.70;9.02;;;25.10;99.90;;;;;;20867260;28;20033;-79
2021/07/23 19:10:54;;;;;;;16.45;8.43;;;25.00;99.90;;;;;;20880399;28;20140;-78
2021/07/23 19:20:55;;;;;;;16.17;9.37;;;24.00;99.90;;;;;;20827791;28;20679;-77
2021/07/23 19:30:56;;;;;;;15.00;9.03;;;23.60;99.90;;;;;;20870276;28;20451;-78
2021/07/23 19:40:57;;;;;;;18.43;9.67;;;23.30;99.90;;;;;;20871384;28;20033;-78
2021/07/23 19:50:58;;;;;;;15.17;8.53;;;23.40;99.90;;;;;;20827033;28;20034;-78
2021/07/23 20:01:06;;;;;;;16.40;9.65;;;23.10;99.90;;;;;;20858911;28;20034;-77
2021/07/23 20:11:11;;;;;;;23.20;9.70;;;22.70;99.90;;;;;;20833839;28;20033;-77
2021/07/23 20:21:12;;;;;;;20.38;8.85;;;22.60;99.90;;;;;;20849476;28;20086;-77
2021/07/23 20:31:13;;;;;;;13.20;9.37;;;22.60;99.90;;;;;;20850718;28;20037;-77
2021/07/23 20:41:15;;;;;;;18.07;9.20;;;22.50;99.90;;;;;;20842565;28;20037;-78
2021/07/23 20:51:16;;;;;;;20.23;9.15;;;22.70;99.90;;;;;;20842074;28;20471;-78
2021/07/23 21:01:17;;;;;;;14.30;8.37;;;22.90;99.90;;;;;;20842936;28;20033;-77
2021/07/23 21:11:18;;;;;;;22.90;9.93;;;22.90;99.90;;;;;;20852498;28;20044;-78
2021/07/23 21:21:19;;;;;;;18.17;9.43;;;22.60;99.90;;;;;;20846922;28;20041;-78
2021/07/23 21:31:20;;;;;;;20.97;10.17;;;22.50;99.90;;;;;;20840493;28;20041;-78
2021/07/23 21:41:21;;;;;;;17.92;9.10;;;22.50;99.90;;;;;;20822323;28;20245;-77
2021/07/23 21:51:21;;;;;;;16.63;9.43;;;22.40;99.90;;;;;;20827902;28;20120;-77
2021/07/23 22:01:22;;;;;;;15.53;9.07;;;22.30;99.90;;;;;;20829609;28;20557;-77
2021/07/23 22:11:23;;;;;;;16.50;9.40;;;22.10;99.90;;;;;;20829236;28;20420;-77
2021/07/23 22:21:24;;;;;;;21.30;9.57;;;22.00;99.90;;;;;;20819795;28;20037;-79
2021/07/23 22:31:25;;;;;;;15.43;9.57;;;21.90;99.90;;;;;;20824827;28;20090;-76
2021/07/23 22:41:25;;;;;;;18.73;9.83;;;21.80;99.90;;;;;;20843050;28;20041;-77
2021/07/23 22:51:26;;;;;;;14.63;8.93;;;21.70;99.90;;;;;;20744825;28;20053;-77
2021/07/23 23:01:27;;;;;;;15.80;9.37;;;21.60;99.90;;;;;;20760999;28;20084;-77
2021/07/23 23:11:28;;;;;;;18.77;9.40;;;21.40;99.90;;;;;;20756626;28;20026;-78
2021/07/23 23:21:29;;;;;;;16.93;9.80;;;21.30;99.90;;;;;;20767329;28;20044;-76
2021/07/23 23:31:30;;;;;;;14.33;9.17;;;21.10;99.90;;;;;;20771143;28;20504;-77
2021/07/23 23:41:31;;;;;;;16.50;10.27;;;21.10;99.90;;;;;;20747146;28;20049;-78
2021/07/23 23:51:35;;;;;;;19.52;10.90;;;21.10;99.90;;;;;;20841222;28;20051;-77
